createdAt,value
2022-12-25T00:00:12.663Z,12.70
2022-12-25T00:03:04.400Z,11.60
2022-12-25T00:05:32.520Z,13.10
2022-12-25T00:08:00.424Z,13.30
2022-12-25T00:10:28.245Z,13.10
2022-12-25T00:12:56.087Z,13.50
2022-12-25T00:15:23.791Z,12.30
2022-12-25T00:17:51.712Z,12.90
2022-12-25T00:20:19.409Z,12.70
2022-12-25T00:22:47.123Z,12.20
2022-12-25T00:25:14.979Z,13.90
2022-12-25T00:27:42.667Z,15.30
2022-12-25T00:30:10.564Z,15.70
2022-12-25T00:32:38.440Z,16.10
2022-12-25T00:35:06.598Z,15.00
2022-12-25T00:37:34.452Z,15.00
2022-12-25T00:40:02.219Z,16.20
2022-12-25T00:42:30.215Z,16.70
2022-12-25T00:44:57.867Z,17.20
2022-12-25T00:47:25.823Z,19.20
2022-12-25T00:49:53.451Z,22.10
2022-12-25T00:52:21.597Z,26.60
2022-12-25T00:54:49.421Z,28.90
2022-12-25T00:57:17.068Z,27.30
2022-12-25T00:59:44.839Z,22.80
2022-12-25T01:02:12.530Z,21.20
2022-12-25T01:04:40.276Z,20.30
2022-12-25T01:07:07.979Z,21.20
2022-12-25T01:09:35.919Z,22.60
2022-12-25T01:12:03.596Z,21.20
2022-12-25T01:14:31.482Z,19.60
2022-12-25T01:16:59.438Z,19.50
2022-12-25T01:19:27.059Z,19.80
2022-12-25T01:21:54.868Z,18.70
2022-12-25T01:24:22.690Z,22.10
2022-12-25T01:26:50.549Z,20.30
2022-12-25T01:29:18.253Z,20.40
2022-12-25T01:31:46.352Z,20.80
2022-12-25T01:34:14.193Z,18.80
2022-12-25T01:36:43.120Z,20.20
2022-12-25T01:39:11.295Z,20.00
2022-12-25T01:41:39.037Z,20.90
2022-12-25T01:44:15.819Z,20.60
2022-12-25T01:46:44.229Z,21.20
2022-12-25T01:49:18.066Z,18.80
2022-12-25T01:51:50.817Z,19.80
2022-12-25T01:54:24.727Z,23.30
2022-12-25T01:56:56.070Z,20.20
2022-12-25T01:59:26.362Z,20.40
2022-12-25T02:04:24.877Z,21.20
2022-12-25T02:06:52.569Z,21.80
2022-12-25T02:09:20.628Z,21.00
2022-12-25T02:11:48.279Z,21.90
2022-12-25T02:14:16.162Z,25.80
2022-12-25T02:16:58.033Z,25.80
2022-12-25T02:19:36.916Z,22.20
2022-12-25T02:22:35.475Z,21.90
2022-12-25T02:25:24.196Z,21.80
2022-12-25T02:28:01.239Z,21.40
2022-12-25T02:30:35.776Z,20.60
2022-12-25T02:33:16.414Z,20.20
2022-12-25T02:35:51.128Z,20.20
2022-12-25T02:38:25.377Z,21.80
2022-12-25T02:40:58.331Z,21.70
2022-12-25T02:43:41.796Z,20.00
2022-12-25T02:46:14.398Z,21.40
2022-12-25T02:48:51.057Z,19.70
2022-12-25T02:53:48.985Z,18.90
2022-12-25T02:56:18.050Z,16.30
2022-12-25T02:58:47.919Z,19.00
2022-12-25T03:01:19.447Z,17.80
2022-12-25T03:03:51.434Z,19.90
2022-12-25T03:06:23.371Z,20.20
2022-12-25T03:08:56.107Z,18.00
2022-12-25T03:11:23.755Z,18.60
2022-12-25T03:14:04.861Z,18.50
2022-12-25T03:16:33.072Z,20.10
2022-12-25T03:19:00.977Z,18.00
2022-12-25T03:21:28.591Z,18.90
2022-12-25T03:24:01.160Z,16.60
2022-12-25T03:26:29.494Z,15.10
2022-12-25T03:28:57.404Z,18.60
2022-12-25T03:31:53.638Z,17.60
2022-12-25T03:34:39.856Z,16.70
2022-12-25T03:37:26.463Z,17.70
2022-12-25T03:40:20.534Z,16.80
2022-12-25T03:42:57.552Z,16.70
2022-12-25T03:45:35.481Z,15.60
2022-12-25T03:48:05.141Z,17.30
2022-12-25T03:50:48.500Z,18.70
2022-12-25T03:53:22.659Z,17.50
2022-12-25T03:55:52.490Z,17.50
2022-12-25T03:58:24.086Z,20.00
2022-12-25T04:00:51.680Z,19.80
2022-12-25T04:03:19.403Z,20.30
2022-12-25T04:05:47.508Z,19.80
2022-12-25T04:08:15.436Z,21.10
2022-12-25T04:10:43.139Z,17.10
2022-12-25T04:13:10.918Z,17.00
2022-12-25T04:15:38.537Z,16.80
2022-12-25T04:18:06.640Z,17.80
2022-12-25T04:20:34.228Z,18.80
2022-12-25T04:23:02.432Z,19.80
2022-12-25T04:25:30.132Z,21.10
2022-12-25T04:28:04.003Z,15.50
2022-12-25T04:30:31.670Z,13.20
2022-12-25T04:32:59.502Z,16.00
2022-12-25T04:35:27.423Z,17.00
2022-12-25T04:37:55.882Z,16.00
2022-12-25T04:40:24.163Z,17.00
2022-12-25T04:42:52.400Z,17.10
2022-12-25T04:45:20.397Z,16.30
2022-12-25T04:47:47.967Z,16.60
2022-12-25T04:50:15.703Z,17.20
2022-12-25T04:52:43.521Z,18.00
2022-12-25T04:55:11.816Z,18.60
2022-12-25T04:57:39.512Z,19.90
2022-12-25T05:00:08.082Z,20.70
2022-12-25T05:02:35.982Z,19.30
2022-12-25T05:05:04.119Z,17.20
2022-12-25T05:07:33.553Z,16.70
2022-12-25T05:10:01.157Z,17.10
2022-12-25T05:12:28.728Z,22.50
2022-12-25T05:14:56.497Z,32.30
2022-12-25T05:17:24.446Z,35.10
2022-12-25T05:19:52.110Z,33.50
2022-12-25T05:22:19.675Z,38.30
2022-12-25T05:24:47.389Z,37.40
2022-12-25T05:27:16.749Z,46.00
2022-12-25T05:29:44.536Z,34.60
2022-12-25T05:32:12.223Z,27.10
2022-12-25T05:34:39.846Z,23.00
2022-12-25T05:37:07.690Z,22.00
2022-12-25T05:39:35.479Z,20.00
2022-12-25T05:42:03.663Z,17.30
2022-12-25T05:44:31.337Z,16.60
2022-12-25T05:46:59.195Z,16.00
2022-12-25T05:49:26.804Z,17.00
2022-12-25T05:51:54.368Z,16.20
2022-12-25T05:54:22.047Z,16.50
2022-12-25T05:56:50.242Z,16.90
2022-12-25T05:59:18.180Z,17.10
2022-12-25T06:01:46.876Z,16.80
2022-12-25T06:04:14.642Z,15.90
2022-12-25T06:06:42.504Z,17.60
2022-12-25T06:09:12.488Z,16.20
2022-12-25T06:11:42.203Z,16.20
2022-12-25T06:14:13.166Z,16.20
2022-12-25T06:16:41.419Z,15.00
2022-12-25T06:19:09.178Z,15.40
2022-12-25T06:21:37.042Z,16.30
2022-12-25T06:24:05.136Z,17.00
2022-12-25T06:26:32.945Z,15.10
2022-12-25T06:29:00.782Z,16.20
2022-12-25T06:31:28.608Z,15.20
2022-12-25T06:33:56.377Z,15.20
2022-12-25T06:36:26.915Z,18.00
2022-12-25T06:41:26.775Z,13.40
2022-12-25T06:43:57.203Z,14.20
2022-12-25T06:46:27.641Z,16.30
2022-12-25T06:48:56.759Z,14.70
2022-12-25T06:51:29.941Z,17.60
2022-12-25T06:53:58.518Z,20.30
2022-12-25T06:56:28.104Z,18.80
2022-12-25T06:58:58.855Z,18.70
2022-12-25T07:01:37.972Z,18.70
2022-12-25T07:04:17.560Z,21.30
2022-12-25T07:06:45.202Z,18.90
2022-12-25T07:09:13.051Z,22.70
2022-12-25T07:11:40.650Z,26.60
2022-12-25T07:14:21.831Z,29.40
2022-12-25T07:16:52.076Z,30.80
2022-12-25T07:19:19.845Z,31.10
2022-12-25T07:21:47.509Z,30.10
2022-12-25T07:24:23.099Z,29.30
2022-12-25T07:26:51.842Z,31.80
2022-12-25T07:29:19.932Z,29.50
2022-12-25T07:31:47.791Z,27.60
2022-12-25T07:34:18.841Z,23.60
2022-12-25T07:36:46.730Z,21.90
2022-12-25T07:39:14.342Z,20.80
2022-12-25T07:41:43.147Z,21.60
2022-12-25T07:44:10.788Z,19.60
2022-12-25T07:46:38.732Z,19.70
2022-12-25T07:49:06.560Z,22.10
2022-12-25T07:51:34.105Z,23.80
2022-12-25T07:54:01.693Z,20.70
2022-12-25T07:56:29.233Z,21.40
2022-12-25T07:58:56.897Z,21.70
2022-12-25T08:01:27.167Z,20.10
2022-12-25T08:06:26.866Z,27.20
2022-12-25T08:08:54.640Z,34.40
2022-12-25T08:11:22.735Z,28.10
2022-12-25T08:13:51.091Z,27.60
2022-12-25T08:16:18.910Z,24.90
2022-12-25T08:18:46.631Z,22.60
2022-12-25T08:21:15.246Z,21.00
2022-12-25T08:23:45.669Z,19.70
2022-12-25T08:26:17.614Z,21.00
2022-12-25T08:28:45.452Z,22.70
2022-12-25T08:31:19.822Z,21.90
2022-12-25T08:33:50.153Z,23.50
2022-12-25T08:36:18.667Z,25.10
2022-12-25T08:38:46.839Z,22.70
2022-12-25T08:41:16.438Z,21.80
2022-12-25T08:43:45.501Z,23.00
2022-12-25T08:46:13.628Z,21.50
2022-12-25T08:48:49.076Z,22.10
2022-12-25T08:51:20.366Z,22.80
2022-12-25T08:53:50.931Z,20.90
2022-12-25T08:56:19.816Z,20.50
2022-12-25T08:58:47.379Z,19.70
2022-12-25T09:01:15.642Z,19.30
2022-12-25T09:03:43.619Z,24.20
2022-12-25T09:06:15.083Z,21.00
2022-12-25T09:08:48.794Z,22.50
2022-12-25T09:11:19.642Z,21.00
2022-12-25T09:13:48.915Z,21.80
2022-12-25T09:16:19.734Z,18.70
2022-12-25T09:18:47.584Z,20.20
2022-12-25T09:21:16.715Z,19.80
2022-12-25T09:23:45.023Z,16.80
2022-12-25T09:26:15.799Z,18.80
2022-12-25T09:28:50.801Z,18.50
2022-12-25T09:31:21.696Z,14.70
2022-12-25T09:33:50.874Z,15.30
2022-12-25T09:36:18.769Z,16.00
2022-12-25T09:38:46.446Z,15.20
2022-12-25T09:41:26.887Z,12.50
2022-12-25T09:44:06.790Z,13.30
2022-12-25T09:47:10.729Z,13.80
2022-12-25T09:50:10.511Z,12.00
2022-12-25T09:53:24.986Z,13.30
2022-12-25T09:56:04.612Z,12.50
2022-12-25T09:58:33.977Z,13.10
2022-12-25T10:01:28.938Z,14.20
2022-12-25T10:06:51.622Z,13.10
2022-12-25T10:09:38.909Z,13.70
2022-12-25T10:12:22.352Z,13.10
2022-12-25T10:15:07.997Z,12.10
2022-12-25T10:17:51.570Z,9.40
2022-12-25T10:20:59.727Z,10.90
2022-12-25T10:23:30.774Z,12.90
2022-12-25T10:25:58.451Z,11.90
2022-12-25T10:28:55.822Z,9.90
2022-12-25T10:31:27.395Z,7.90
2022-12-25T10:33:55.686Z,8.60
2022-12-25T10:36:28.851Z,8.80
2022-12-25T10:38:56.591Z,8.60
2022-12-25T10:41:39.474Z,8.90
2022-12-25T10:44:33.907Z,9.20
2022-12-25T10:47:04.208Z,6.90
2022-12-25T10:52:02.720Z,7.60
2022-12-25T10:54:35.852Z,7.70
2022-12-25T10:57:09.856Z,8.00
2022-12-25T10:59:55.710Z,7.40
2022-12-25T11:02:23.362Z,7.00
2022-12-25T11:04:58.446Z,7.10
2022-12-25T11:07:26.596Z,8.10
2022-12-25T11:10:02.678Z,5.30
2022-12-25T11:12:37.870Z,6.20
2022-12-25T11:15:27.984Z,6.60
2022-12-25T11:17:55.497Z,7.00
2022-12-25T11:20:24.477Z,6.10
2022-12-25T11:22:52.454Z,7.70
2022-12-25T11:25:26.375Z,6.70
2022-12-25T11:28:03.360Z,6.50
2022-12-25T11:30:33.560Z,7.60
2022-12-25T11:35:43.074Z,7.20
2022-12-25T11:38:11.145Z,7.30
2022-12-25T11:40:51.925Z,6.70
2022-12-25T11:43:24.901Z,6.40
2022-12-25T11:45:59.191Z,7.20
2022-12-25T11:48:56.628Z,6.20
2022-12-25T11:51:29.149Z,7.00
2022-12-25T11:54:05.017Z,6.10
2022-12-25T11:56:32.714Z,5.60
2022-12-25T11:59:17.760Z,6.00
2022-12-25T12:01:55.084Z,7.30
2022-12-25T12:04:31.934Z,6.50
2022-12-25T12:07:17.067Z,5.80
2022-12-25T12:10:03.800Z,6.30
2022-12-25T12:12:49.078Z,6.20
2022-12-25T12:15:41.897Z,6.60
2022-12-25T12:18:18.685Z,6.10
2022-12-25T12:20:58.561Z,5.00
2022-12-25T12:23:28.699Z,7.10
2022-12-25T12:25:57.376Z,5.50
2022-12-25T12:28:29.922Z,6.10
2022-12-25T12:31:06.403Z,6.30
2022-12-25T12:33:42.662Z,5.40
2022-12-25T12:36:14.485Z,6.10
2022-12-25T12:38:44.376Z,6.80
2022-12-25T12:44:03.244Z,6.60
2022-12-25T12:46:35.999Z,7.20
2022-12-25T12:49:16.714Z,6.30
2022-12-25T12:51:44.358Z,5.50
2022-12-25T12:54:26.533Z,6.20
2022-12-25T12:56:58.504Z,6.20
2022-12-25T12:59:32.755Z,5.30
2022-12-25T13:02:08.879Z,6.80
2022-12-25T13:04:39.595Z,7.50
2022-12-25T13:07:30.929Z,7.20
2022-12-25T13:10:25.821Z,6.00
2022-12-25T13:15:28.657Z,5.20
2022-12-25T13:18:01.845Z,5.60
2022-12-25T13:20:59.351Z,6.10
2022-12-25T13:23:34.241Z,5.50
2022-12-25T13:26:12.021Z,6.00
2022-12-25T13:28:40.490Z,6.00
2022-12-25T13:31:18.035Z,6.30
2022-12-25T13:33:56.038Z,5.60
2022-12-25T13:36:24.789Z,6.40
2022-12-25T13:38:55.305Z,6.60
2022-12-25T13:41:26.542Z,5.90
2022-12-25T13:43:58.230Z,6.30
2022-12-25T13:46:27.661Z,6.20
2022-12-25T13:49:01.819Z,6.10
2022-12-25T13:51:29.817Z,5.90
2022-12-25T13:54:06.272Z,5.20
2022-12-25T13:56:35.199Z,6.30
2022-12-25T13:59:04.433Z,6.90
2022-12-25T14:01:32.194Z,6.70
2022-12-25T14:04:00.220Z,6.80
2022-12-25T14:06:30.111Z,6.40
2022-12-25T14:08:58.745Z,7.00
2022-12-25T14:11:29.765Z,6.60
2022-12-25T14:14:06.400Z,6.60
2022-12-25T14:16:34.345Z,6.70
2022-12-25T14:19:03.723Z,7.10
2022-12-25T14:21:44.137Z,8.70
2022-12-25T14:24:14.783Z,8.20
2022-12-25T14:26:43.140Z,8.30
2022-12-25T14:29:17.901Z,10.90
2022-12-25T14:31:47.510Z,13.90
2022-12-25T14:34:23.051Z,12.60
2022-12-25T14:36:52.915Z,10.80
2022-12-25T14:39:29.789Z,10.20
2022-12-25T14:41:57.635Z,10.60
2022-12-25T14:44:30.155Z,16.10
2022-12-25T14:47:10.646Z,16.20
2022-12-25T14:49:38.670Z,13.10
2022-12-25T14:52:24.563Z,13.00
2022-12-25T14:55:05.281Z,11.90
2022-12-25T14:57:38.495Z,19.80
2022-12-25T15:00:24.370Z,23.30
2022-12-25T15:02:56.094Z,20.00
2022-12-25T15:05:34.752Z,21.30
2022-12-25T15:08:08.329Z,22.80
2022-12-25T15:13:25.848Z,18.70
2022-12-25T15:15:58.417Z,19.40
2022-12-25T15:18:30.961Z,19.00
2022-12-25T15:20:58.841Z,15.70
2022-12-25T15:23:26.719Z,13.90
2022-12-25T15:25:54.369Z,14.00
2022-12-25T15:28:22.081Z,16.10
2022-12-25T15:30:49.835Z,26.50
2022-12-25T15:33:19.152Z,22.30
2022-12-25T15:35:46.810Z,29.60
2022-12-25T15:38:14.442Z,30.00
2022-12-25T15:40:42.662Z,22.40
2022-12-25T15:43:38.933Z,29.30
2022-12-25T15:46:01.388Z,27.10
2022-12-25T15:48:29.188Z,34.20
2022-12-25T15:50:57.173Z,29.90
2022-12-25T15:53:24.914Z,31.40
2022-12-25T15:55:52.716Z,44.60
2022-12-25T15:58:20.292Z,34.00
2022-12-25T16:00:47.866Z,37.70
2022-12-25T16:03:15.423Z,32.00
2022-12-25T16:05:43.202Z,25.00
2022-12-25T16:08:11.070Z,21.50
2022-12-25T16:10:40.418Z,19.90
2022-12-25T16:13:08.755Z,22.80
2022-12-25T16:15:37.206Z,25.90
2022-12-25T16:18:05.595Z,24.80
2022-12-25T16:20:35.036Z,29.70
2022-12-25T16:23:02.647Z,29.00
2022-12-25T16:25:30.424Z,27.70
2022-12-25T16:27:58.217Z,23.70
2022-12-25T16:30:26.171Z,21.70
2022-12-25T16:32:54.125Z,17.70
2022-12-25T16:35:21.662Z,13.50
2022-12-25T16:37:49.220Z,12.60
2022-12-25T16:40:16.839Z,18.20
2022-12-25T16:42:44.889Z,20.20
2022-12-25T16:45:12.992Z,20.60
2022-12-25T16:47:41.225Z,20.90
2022-12-25T16:50:09.420Z,25.60
2022-12-25T16:52:37.018Z,24.50
2022-12-25T16:55:05.532Z,22.30
2022-12-25T16:57:34.088Z,24.30
2022-12-25T17:00:01.736Z,26.50
2022-12-25T17:02:29.737Z,27.40
2022-12-25T17:04:57.731Z,26.80
2022-12-25T17:07:25.551Z,26.10
2022-12-25T17:09:53.756Z,28.80
2022-12-25T17:12:21.504Z,26.20
2022-12-25T17:14:49.298Z,26.20
2022-12-25T17:17:17.262Z,30.40
2022-12-25T17:19:45.280Z,31.10
2022-12-25T17:22:13.252Z,25.70
2022-12-25T17:24:41.120Z,29.60
2022-12-25T17:27:09.444Z,25.30
2022-12-25T17:29:37.871Z,22.20
2022-12-25T17:32:06.926Z,23.10
2022-12-25T17:34:34.847Z,25.30
2022-12-25T17:37:02.831Z,30.00
2022-12-25T17:39:31.067Z,24.80
2022-12-25T17:41:58.873Z,24.40
2022-12-25T17:44:26.716Z,23.10
2022-12-25T17:46:54.516Z,19.10
2022-12-25T17:49:22.216Z,19.60
2022-12-25T17:51:50.308Z,21.50
2022-12-25T17:54:18.202Z,18.60
2022-12-25T17:56:46.162Z,18.70
2022-12-25T17:59:14.233Z,16.40
2022-12-25T18:01:42.048Z,20.10
2022-12-25T18:04:10.137Z,20.30
2022-12-25T18:06:37.830Z,21.40
2022-12-25T18:09:06.110Z,19.20
2022-12-25T18:11:36.777Z,18.60
2022-12-25T18:14:06.469Z,17.90
2022-12-25T18:16:36.929Z,17.50
2022-12-25T18:19:05.228Z,16.90
2022-12-25T18:21:32.851Z,18.00
2022-12-25T18:24:02.947Z,16.70
2022-12-25T18:26:30.707Z,15.40
2022-12-25T18:28:58.831Z,17.70
2022-12-25T18:31:31.680Z,15.10
2022-12-25T18:34:00.514Z,16.50
2022-12-25T18:36:29.928Z,16.90
2022-12-25T18:38:58.421Z,17.80
2022-12-25T18:41:26.864Z,19.30
2022-12-25T18:43:55.805Z,19.60
2022-12-25T18:46:26.468Z,19.50
2022-12-25T18:48:56.709Z,19.10
2022-12-25T18:51:24.757Z,22.20
2022-12-25T18:53:52.491Z,18.70
2022-12-25T18:56:20.532Z,22.40
2022-12-25T18:58:49.031Z,19.40
2022-12-25T19:01:19.975Z,15.50
2022-12-25T19:03:48.632Z,17.10
2022-12-25T19:06:18.474Z,17.00
2022-12-25T19:08:46.895Z,18.60
2022-12-25T19:11:14.803Z,20.00
2022-12-25T19:13:42.933Z,20.30
2022-12-25T19:16:12.159Z,17.20
2022-12-25T19:18:40.237Z,15.80
2022-12-25T19:21:10.511Z,18.30
2022-12-25T19:23:38.543Z,18.30
2022-12-25T19:26:08.327Z,15.10
2022-12-25T19:28:37.568Z,15.90
2022-12-25T19:31:07.495Z,15.60
2022-12-25T19:33:37.486Z,16.30
2022-12-25T19:36:08.772Z,16.50
2022-12-25T19:38:36.722Z,17.20
2022-12-25T19:41:10.411Z,16.10
2022-12-25T19:43:39.757Z,18.70
2022-12-25T19:46:14.755Z,19.80
2022-12-25T19:48:42.846Z,18.60
2022-12-25T19:51:18.852Z,18.40
2022-12-25T19:53:48.499Z,17.20
2022-12-25T19:56:16.419Z,18.10
2022-12-25T19:58:44.965Z,15.80
2022-12-25T20:01:15.538Z,15.70
2022-12-25T20:03:46.443Z,35.60
2022-12-25T20:06:18.645Z,39.30
2022-12-25T20:08:48.075Z,23.10
2022-12-25T20:11:17.274Z,19.70
2022-12-25T20:13:45.337Z,15.70
2022-12-25T20:16:13.453Z,18.80
2022-12-25T20:18:41.736Z,15.90
2022-12-25T20:21:23.693Z,14.60
2022-12-25T20:23:52.906Z,15.50
2022-12-25T20:26:23.759Z,15.30
2022-12-25T20:28:52.117Z,19.60
2022-12-25T20:31:26.094Z,26.00
2022-12-25T20:33:55.791Z,18.90
2022-12-25T20:36:24.231Z,16.10
2022-12-25T20:38:52.199Z,15.70
2022-12-25T20:41:26.784Z,12.90
2022-12-25T20:43:55.620Z,18.30
2022-12-25T20:46:24.499Z,18.30
2022-12-25T20:48:52.362Z,15.00
2022-12-25T20:51:25.151Z,15.60
2022-12-25T20:53:53.859Z,15.80
2022-12-25T20:56:24.430Z,18.60
2022-12-25T20:58:56.591Z,13.50
2022-12-25T21:01:24.790Z,15.60
2022-12-25T21:03:53.665Z,15.10
2022-12-25T21:06:22.314Z,15.10
2022-12-25T21:08:50.064Z,16.50
2022-12-25T21:11:18.097Z,16.60
2022-12-25T21:13:46.333Z,17.60
2022-12-25T21:16:17.812Z,16.00
2022-12-25T21:18:46.865Z,15.30
2022-12-25T21:21:15.424Z,15.30
2022-12-25T21:23:43.172Z,14.30
2022-12-25T21:26:21.816Z,18.30
2022-12-25T21:28:51.898Z,15.30
2022-12-25T21:31:20.365Z,15.80
2022-12-25T21:33:48.319Z,14.80
2022-12-25T21:36:18.010Z,17.30
2022-12-25T21:38:46.131Z,15.00
2022-12-25T21:41:14.820Z,18.20
2022-12-25T21:43:42.986Z,17.30
2022-12-25T21:46:13.556Z,15.70
2022-12-25T21:48:42.760Z,20.50
2022-12-25T21:51:19.327Z,21.70
2022-12-25T21:53:47.351Z,22.20
2022-12-25T21:56:16.627Z,20.50
2022-12-25T21:58:44.501Z,16.50
2022-12-25T22:01:12.456Z,21.20
2022-12-25T22:03:40.652Z,16.20
2022-12-25T22:06:12.768Z,14.40
2022-12-25T22:08:43.291Z,13.20
2022-12-25T22:11:11.309Z,16.70
2022-12-25T22:13:39.410Z,13.70
2022-12-25T22:16:07.633Z,14.90
2022-12-25T22:18:35.608Z,15.80
2022-12-25T22:21:03.524Z,16.30
2022-12-25T22:23:31.275Z,15.40
2022-12-25T22:25:59.136Z,13.50
2022-12-25T22:28:27.751Z,14.20
2022-12-25T22:30:55.701Z,16.90
2022-12-25T22:33:23.480Z,17.20
2022-12-25T22:36:09.939Z,17.80
2022-12-25T22:38:42.536Z,16.90
2022-12-25T22:41:10.556Z,18.00
2022-12-25T22:44:15.313Z,19.90
2022-12-25T22:46:26.448Z,25.60
2022-12-25T22:48:54.413Z,24.70
2022-12-25T22:51:22.290Z,26.70
2022-12-25T22:53:50.305Z,26.90
2022-12-25T22:56:17.891Z,27.50
2022-12-25T22:58:45.760Z,28.20
2022-12-25T23:01:13.713Z,30.80
2022-12-25T23:03:41.613Z,29.40
2022-12-25T23:06:09.543Z,27.60
2022-12-25T23:08:37.480Z,27.80
2022-12-25T23:11:05.659Z,28.50
2022-12-25T23:13:33.892Z,26.80
2022-12-25T23:16:01.962Z,28.30
2022-12-25T23:18:29.828Z,28.70
2022-12-25T23:21:01.188Z,28.80
2022-12-25T23:23:28.775Z,27.00
2022-12-25T23:25:57.248Z,27.30
2022-12-25T23:28:24.815Z,27.10
2022-12-25T23:30:52.635Z,25.20
2022-12-25T23:33:20.766Z,24.30
2022-12-25T23:35:48.630Z,24.60
2022-12-25T23:38:16.461Z,22.60
2022-12-25T23:40:44.174Z,20.30
2022-12-25T23:43:11.730Z,20.70
2022-12-25T23:45:40.377Z,22.70
2022-12-25T23:48:08.840Z,24.90
2022-12-25T23:50:36.546Z,27.80
2022-12-25T23:53:04.744Z,27.50
2022-12-25T23:55:33.607Z,32.20
2022-12-25T23:58:01.399Z,31.30
